sensor_id;sensor_type;location;lat;lon;timestamp;P1;durP1;ratioP1;P2;durP2;ratioP2
39654;SDS011;25336;59.944;11.010;2024-01-30T00:00:25;10.25;;;4.68;;
39654;SDS011;25336;59.944;11.010;2024-01-30T00:02:52;8.88;;;4.43;;
39654;SDS011;25336;59.944;11.010;2024-01-30T00:05:18;8.05;;;3.85;;
39654;SDS011;25336;59.944;11.010;2024-01-30T00:07:47;8.68;;;3.88;;
39654;SDS011;25336;59.944;11.010;2024-01-30T00:10:13;9.13;;;3.78;;
39654;SDS011;25336;59.944;11.010;2024-01-30T00:12:39;11.15;;;4.50;;
39654;SDS011;25336;59.944;11.010;2024-01-30T00:15:05;9.38;;;3.42;;
39654;SDS011;25336;59.944;11.010;2024-01-30T00:17:34;6.30;;;3.40;;
39654;SDS011;25336;59.944;11.010;2024-01-30T00:20:03;9.45;;;4.18;;
39654;SDS011;25336;59.944;11.010;2024-01-30T00:22:34;12.40;;;3.88;;
39654;SDS011;25336;59.944;11.010;2024-01-30T00:25:00;8.18;;;3.70;;
39654;SDS011;25336;59.944;11.010;2024-01-30T00:27:26;9.05;;;3.40;;
39654;SDS011;25336;59.944;11.010;2024-01-30T00:29:52;5.95;;;3.38;;
39654;SDS011;25336;59.944;11.010;2024-01-30T00:32:19;6.03;;;3.15;;
39654;SDS011;25336;59.944;11.010;2024-01-30T00:34:45;5.97;;;3.20;;
39654;SDS011;25336;59.944;11.010;2024-01-30T00:37:11;7.03;;;3.20;;
39654;SDS011;25336;59.944;11.010;2024-01-30T00:39:36;5.90;;;3.55;;
39654;SDS011;25336;59.944;11.010;2024-01-30T00:42:02;10.43;;;3.65;;
39654;SDS011;25336;59.944;11.010;2024-01-30T00:44:28;7.88;;;3.28;;
39654;SDS011;25336;59.944;11.010;2024-01-30T00:46:55;4.63;;;2.85;;
39654;SDS011;25336;59.944;11.010;2024-01-30T00:49:21;4.57;;;2.95;;
39654;SDS011;25336;59.944;11.010;2024-01-30T00:51:46;6.93;;;3.10;;
39654;SDS011;25336;59.944;11.010;2024-01-30T00:54:12;6.45;;;3.15;;
39654;SDS011;25336;59.944;11.010;2024-01-30T00:59:06;7.28;;;3.05;;
39654;SDS011;25336;59.944;11.010;2024-01-30T01:01:32;8.20;;;3.20;;
39654;SDS011;25336;59.944;11.010;2024-01-30T01:03:58;5.20;;;3.15;;
39654;SDS011;25336;59.944;11.010;2024-01-30T01:06:23;4.13;;;2.47;;
39654;SDS011;25336;59.944;11.010;2024-01-30T01:08:49;7.05;;;2.95;;
39654;SDS011;25336;59.944;11.010;2024-01-30T01:11:15;4.03;;;2.08;;
39654;SDS011;25336;59.944;11.010;2024-01-30T01:13:47;5.43;;;2.38;;
39654;SDS011;25336;59.944;11.010;2024-01-30T01:16:13;4.88;;;2.08;;
39654;SDS011;25336;59.944;11.010;2024-01-30T01:18:44;6.53;;;2.10;;
39654;SDS011;25336;59.944;11.010;2024-01-30T01:21:10;3.78;;;2.40;;
39654;SDS011;25336;59.944;11.010;2024-01-30T01:23:36;7.47;;;2.67;;
39654;SDS011;25336;59.944;11.010;2024-01-30T01:26:02;5.90;;;2.95;;
39654;SDS011;25336;59.944;11.010;2024-01-30T01:28:28;6.90;;;2.55;;
39654;SDS011;25336;59.944;11.010;2024-01-30T01:30:55;8.80;;;3.50;;
39654;SDS011;25336;59.944;11.010;2024-01-30T01:33:24;4.85;;;2.42;;
39654;SDS011;25336;59.944;11.010;2024-01-30T01:35:54;4.90;;;2.72;;
39654;SDS011;25336;59.944;11.010;2024-01-30T01:38:19;5.65;;;3.10;;
39654;SDS011;25336;59.944;11.010;2024-01-30T01:40:45;7.93;;;3.47;;
39654;SDS011;25336;59.944;11.010;2024-01-30T01:43:11;8.45;;;3.83;;
39654;SDS011;25336;59.944;11.010;2024-01-30T01:45:36;6.50;;;3.50;;
39654;SDS011;25336;59.944;11.010;2024-01-30T01:48:05;6.43;;;3.25;;
39654;SDS011;25336;59.944;11.010;2024-01-30T01:50:33;4.85;;;2.78;;
39654;SDS011;25336;59.944;11.010;2024-01-30T01:52:59;4.78;;;2.50;;
39654;SDS011;25336;59.944;11.010;2024-01-30T01:55:24;5.15;;;2.38;;
39654;SDS011;25336;59.944;11.010;2024-01-30T01:57:53;6.57;;;3.63;;
39654;SDS011;25336;59.944;11.010;2024-01-30T02:00:23;4.50;;;2.63;;
39654;SDS011;25336;59.944;11.010;2024-01-30T02:03:11;6.63;;;2.67;;
39654;SDS011;25336;59.944;11.010;2024-01-30T02:05:42;7.18;;;3.20;;
39654;SDS011;25336;59.944;11.010;2024-01-30T02:08:08;4.53;;;2.45;;
39654;SDS011;25336;59.944;11.010;2024-01-30T02:10:34;6.55;;;2.20;;
39654;SDS011;25336;59.944;11.010;2024-01-30T02:13:00;4.65;;;2.78;;
39654;SDS011;25336;59.944;11.010;2024-01-30T02:15:26;6.78;;;3.15;;
39654;SDS011;25336;59.944;11.010;2024-01-30T02:17:52;6.07;;;2.53;;
39654;SDS011;25336;59.944;11.010;2024-01-30T02:20:17;3.97;;;2.25;;
39654;SDS011;25336;59.944;11.010;2024-01-30T02:22:44;5.10;;;2.15;;
39654;SDS011;25336;59.944;11.010;2024-01-30T02:25:10;4.10;;;2.40;;
39654;SDS011;25336;59.944;11.010;2024-01-30T02:27:35;7.70;;;2.35;;
39654;SDS011;25336;59.944;11.010;2024-01-30T02:30:01;4.65;;;1.85;;
39654;SDS011;25336;59.944;11.010;2024-01-30T02:32:27;7.55;;;2.22;;
39654;SDS011;25336;59.944;11.010;2024-01-30T02:34:53;3.60;;;1.92;;
39654;SDS011;25336;59.944;11.010;2024-01-30T02:37:19;7.15;;;2.50;;
39654;SDS011;25336;59.944;11.010;2024-01-30T02:39:45;4.47;;;2.20;;
39654;SDS011;25336;59.944;11.010;2024-01-30T02:42:11;6.22;;;2.78;;
39654;SDS011;25336;59.944;11.010;2024-01-30T02:44:37;5.78;;;2.67;;
39654;SDS011;25336;59.944;11.010;2024-01-30T02:47:03;6.30;;;2.40;;
39654;SDS011;25336;59.944;11.010;2024-01-30T02:49:29;3.70;;;2.53;;
39654;SDS011;25336;59.944;11.010;2024-01-30T02:51:55;8.18;;;2.65;;
39654;SDS011;25336;59.944;11.010;2024-01-30T02:54:22;7.78;;;2.17;;
39654;SDS011;25336;59.944;11.010;2024-01-30T02:56:48;3.95;;;2.30;;
39654;SDS011;25336;59.944;11.010;2024-01-30T02:59:14;5.00;;;2.78;;
39654;SDS011;25336;59.944;11.010;2024-01-30T03:01:45;5.43;;;2.25;;
39654;SDS011;25336;59.944;11.010;2024-01-30T03:04:11;4.82;;;2.05;;
39654;SDS011;25336;59.944;11.010;2024-01-30T03:06:37;3.90;;;2.33;;
39654;SDS011;25336;59.944;11.010;2024-01-30T03:09:03;4.03;;;2.50;;
39654;SDS011;25336;59.944;11.010;2024-01-30T03:11:30;2.47;;;1.83;;
39654;SDS011;25336;59.944;11.010;2024-01-30T03:13:56;6.10;;;2.92;;
39654;SDS011;25336;59.944;11.010;2024-01-30T03:16:22;4.55;;;1.92;;
39654;SDS011;25336;59.944;11.010;2024-01-30T03:18:48;8.85;;;2.33;;
39654;SDS011;25336;59.944;11.010;2024-01-30T03:21:14;5.35;;;2.03;;
39654;SDS011;25336;59.944;11.010;2024-01-30T03:23:40;4.80;;;2.03;;
39654;SDS011;25336;59.944;11.010;2024-01-30T03:26:06;9.90;;;2.00;;
39654;SDS011;25336;59.944;11.010;2024-01-30T03:28:31;3.95;;;1.80;;
39654;SDS011;25336;59.944;11.010;2024-01-30T03:30:57;5.82;;;1.85;;
39654;SDS011;25336;59.944;11.010;2024-01-30T03:33:23;5.10;;;2.42;;
39654;SDS011;25336;59.944;11.010;2024-01-30T03:35:49;6.05;;;1.88;;
39654;SDS011;25336;59.944;11.010;2024-01-30T03:38:14;5.30;;;1.88;;
39654;SDS011;25336;59.944;11.010;2024-01-30T03:40:40;4.22;;;1.83;;
39654;SDS011;25336;59.944;11.010;2024-01-30T03:43:08;6.05;;;1.85;;
39654;SDS011;25336;59.944;11.010;2024-01-30T03:45:34;4.43;;;2.20;;
39654;SDS011;25336;59.944;11.010;2024-01-30T03:48:07;6.03;;;2.05;;
39654;SDS011;25336;59.944;11.010;2024-01-30T03:50:34;5.10;;;2.10;;
39654;SDS011;25336;59.944;11.010;2024-01-30T03:53:02;3.20;;;1.95;;
39654;SDS011;25336;59.944;11.010;2024-01-30T03:55:28;3.58;;;1.80;;
39654;SDS011;25336;59.944;11.010;2024-01-30T03:57:54;3.20;;;1.77;;
39654;SDS011;25336;59.944;11.010;2024-01-30T04:00:20;4.22;;;2.15;;
39654;SDS011;25336;59.944;11.010;2024-01-30T04:02:45;4.65;;;2.22;;
39654;SDS011;25336;59.944;11.010;2024-01-30T04:05:11;4.97;;;2.67;;
39654;SDS011;25336;59.944;11.010;2024-01-30T04:07:37;4.55;;;1.88;;
39654;SDS011;25336;59.944;11.010;2024-01-30T04:10:03;5.68;;;2.00;;
39654;SDS011;25336;59.944;11.010;2024-01-30T04:12:31;3.05;;;1.60;;
39654;SDS011;25336;59.944;11.010;2024-01-30T04:14:56;4.22;;;2.20;;
39654;SDS011;25336;59.944;11.010;2024-01-30T04:17:22;6.43;;;2.30;;
39654;SDS011;25336;59.944;11.010;2024-01-30T04:19:48;8.27;;;3.70;;
39654;SDS011;25336;59.944;11.010;2024-01-30T04:22:14;4.57;;;2.00;;
39654;SDS011;25336;59.944;11.010;2024-01-30T04:24:40;8.07;;;1.92;;
39654;SDS011;25336;59.944;11.010;2024-01-30T04:27:06;5.43;;;2.42;;
39654;SDS011;25336;59.944;11.010;2024-01-30T04:29:31;5.57;;;2.35;;
39654;SDS011;25336;59.944;11.010;2024-01-30T04:31:59;4.85;;;1.98;;
39654;SDS011;25336;59.944;11.010;2024-01-30T04:34:25;7.13;;;2.85;;
39654;SDS011;25336;59.944;11.010;2024-01-30T04:36:50;9.25;;;2.92;;
39654;SDS011;25336;59.944;11.010;2024-01-30T04:39:16;5.63;;;2.50;;
39654;SDS011;25336;59.944;11.010;2024-01-30T04:41:46;2.97;;;2.08;;
39654;SDS011;25336;59.944;11.010;2024-01-30T04:44:12;5.07;;;2.15;;
39654;SDS011;25336;59.944;11.010;2024-01-30T04:46:38;8.38;;;3.13;;
39654;SDS011;25336;59.944;11.010;2024-01-30T04:49:03;9.00;;;2.80;;
39654;SDS011;25336;59.944;11.010;2024-01-30T04:51:29;4.38;;;2.70;;
39654;SDS011;25336;59.944;11.010;2024-01-30T04:53:55;4.75;;;2.65;;
39654;SDS011;25336;59.944;11.010;2024-01-30T04:56:24;6.53;;;3.05;;
39654;SDS011;25336;59.944;11.010;2024-01-30T04:58:50;9.98;;;2.83;;
39654;SDS011;25336;59.944;11.010;2024-01-30T05:01:16;11.32;;;3.38;;
39654;SDS011;25336;59.944;11.010;2024-01-30T05:03:42;4.18;;;2.47;;
39654;SDS011;25336;59.944;11.010;2024-01-30T05:06:08;9.30;;;3.42;;
39654;SDS011;25336;59.944;11.010;2024-01-30T05:08:34;4.38;;;2.55;;
39654;SDS011;25336;59.944;11.010;2024-01-30T05:11:04;4.80;;;2.70;;
39654;SDS011;25336;59.944;11.010;2024-01-30T05:13:31;4.50;;;2.78;;
39654;SDS011;25336;59.944;11.010;2024-01-30T05:15:57;6.68;;;3.65;;
39654;SDS011;25336;59.944;11.010;2024-01-30T05:18:23;7.40;;;2.28;;
39654;SDS011;25336;59.944;11.010;2024-01-30T05:20:56;5.20;;;2.50;;
39654;SDS011;25336;59.944;11.010;2024-01-30T05:23:22;5.78;;;2.85;;
39654;SDS011;25336;59.944;11.010;2024-01-30T05:25:48;4.50;;;2.75;;
39654;SDS011;25336;59.944;11.010;2024-01-30T05:28:14;5.43;;;2.53;;
39654;SDS011;25336;59.944;11.010;2024-01-30T05:30:40;3.85;;;2.42;;
39654;SDS011;25336;59.944;11.010;2024-01-30T05:33:06;9.95;;;3.00;;
39654;SDS011;25336;59.944;11.010;2024-01-30T05:35:32;9.68;;;3.10;;
39654;SDS011;25336;59.944;11.010;2024-01-30T05:37:58;5.88;;;2.83;;
39654;SDS011;25336;59.944;11.010;2024-01-30T05:40:23;5.68;;;2.80;;
39654;SDS011;25336;59.944;11.010;2024-01-30T05:42:49;6.35;;;2.50;;
39654;SDS011;25336;59.944;11.010;2024-01-30T05:45:15;5.93;;;2.85;;
39654;SDS011;25336;59.944;11.010;2024-01-30T05:47:41;3.28;;;2.60;;
39654;SDS011;25336;59.944;11.010;2024-01-30T05:50:07;5.05;;;3.05;;
39654;SDS011;25336;59.944;11.010;2024-01-30T05:52:33;6.13;;;2.40;;
39654;SDS011;25336;59.944;11.010;2024-01-30T05:54:59;4.53;;;2.90;;
39654;SDS011;25336;59.944;11.010;2024-01-30T05:57:28;4.80;;;2.60;;
39654;SDS011;25336;59.944;11.010;2024-01-30T05:59:54;6.30;;;3.15;;
39654;SDS011;25336;59.944;11.010;2024-01-30T06:02:20;6.40;;;3.78;;
39654;SDS011;25336;59.944;11.010;2024-01-30T06:04:45;5.10;;;2.97;;
39654;SDS011;25336;59.944;11.010;2024-01-30T06:07:11;6.65;;;2.70;;
39654;SDS011;25336;59.944;11.010;2024-01-30T06:09:37;5.20;;;2.63;;
39654;SDS011;25336;59.944;11.010;2024-01-30T06:12:05;4.40;;;2.47;;
39654;SDS011;25336;59.944;11.010;2024-01-30T06:14:34;4.72;;;2.95;;
39654;SDS011;25336;59.944;11.010;2024-01-30T06:17:09;6.07;;;3.40;;
39654;SDS011;25336;59.944;11.010;2024-01-30T06:19:38;8.10;;;3.05;;
39654;SDS011;25336;59.944;11.010;2024-01-30T06:22:05;6.65;;;2.40;;
39654;SDS011;25336;59.944;11.010;2024-01-30T06:24:31;5.43;;;2.28;;
39654;SDS011;25336;59.944;11.010;2024-01-30T06:26:57;5.53;;;2.00;;
39654;SDS011;25336;59.944;11.010;2024-01-30T06:29:22;8.55;;;2.20;;
39654;SDS011;25336;59.944;11.010;2024-01-30T06:31:51;5.20;;;2.45;;
39654;SDS011;25336;59.944;11.010;2024-01-30T06:34:21;5.78;;;2.30;;
39654;SDS011;25336;59.944;11.010;2024-01-30T06:36:48;7.18;;;2.75;;
39654;SDS011;25336;59.944;11.010;2024-01-30T06:39:13;4.68;;;2.45;;
39654;SDS011;25336;59.944;11.010;2024-01-30T06:41:39;7.45;;;3.00;;
39654;SDS011;25336;59.944;11.010;2024-01-30T06:44:05;6.13;;;2.60;;
39654;SDS011;25336;59.944;11.010;2024-01-30T06:46:33;5.85;;;2.38;;
39654;SDS011;25336;59.944;11.010;2024-01-30T06:48:59;8.57;;;2.65;;
39654;SDS011;25336;59.944;11.010;2024-01-30T06:51:25;6.63;;;2.50;;
39654;SDS011;25336;59.944;11.010;2024-01-30T06:53:51;4.60;;;2.47;;
39654;SDS011;25336;59.944;11.010;2024-01-30T06:56:17;4.13;;;3.22;;
39654;SDS011;25336;59.944;11.010;2024-01-30T06:58:49;3.65;;;2.42;;
39654;SDS011;25336;59.944;11.010;2024-01-30T07:01:15;6.13;;;3.17;;
39654;SDS011;25336;59.944;11.010;2024-01-30T07:03:42;6.97;;;3.67;;
39654;SDS011;25336;59.944;11.010;2024-01-30T07:06:10;9.80;;;3.80;;
39654;SDS011;25336;59.944;11.010;2024-01-30T07:08:37;6.68;;;3.40;;
39654;SDS011;25336;59.944;11.010;2024-01-30T07:11:05;8.35;;;4.35;;
39654;SDS011;25336;59.944;11.010;2024-01-30T07:13:33;6.47;;;4.10;;
39654;SDS011;25336;59.944;11.010;2024-01-30T07:16:06;6.13;;;3.67;;
39654;SDS011;25336;59.944;11.010;2024-01-30T07:18:33;9.75;;;5.15;;
39654;SDS011;25336;59.944;11.010;2024-01-30T07:20:59;10.73;;;5.70;;
39654;SDS011;25336;59.944;11.010;2024-01-30T07:23:27;8.80;;;4.97;;
39654;SDS011;25336;59.944;11.010;2024-01-30T07:25:54;9.73;;;5.72;;
39654;SDS011;25336;59.944;11.010;2024-01-30T07:28:20;10.73;;;4.72;;
39654;SDS011;25336;59.944;11.010;2024-01-30T07:30:49;8.43;;;3.88;;
39654;SDS011;25336;59.944;11.010;2024-01-30T07:33:15;9.18;;;4.50;;
39654;SDS011;25336;59.944;11.010;2024-01-30T07:35:42;10.32;;;3.95;;
39654;SDS011;25336;59.944;11.010;2024-01-30T07:38:17;7.15;;;3.90;;
39654;SDS011;25336;59.944;11.010;2024-01-30T07:40:42;9.60;;;4.55;;
39654;SDS011;25336;59.944;11.010;2024-01-30T07:43:08;7.97;;;3.25;;
39654;SDS011;25336;59.944;11.010;2024-01-30T07:45:34;8.02;;;4.00;;
39654;SDS011;25336;59.944;11.010;2024-01-30T07:48:00;10.18;;;4.20;;
39654;SDS011;25336;59.944;11.010;2024-01-30T07:50:26;8.52;;;4.20;;
39654;SDS011;25336;59.944;11.010;2024-01-30T07:52:52;10.55;;;4.72;;
39654;SDS011;25336;59.944;11.010;2024-01-30T07:55:20;8.98;;;4.25;;
39654;SDS011;25336;59.944;11.010;2024-01-30T07:57:53;13.23;;;4.35;;
39654;SDS011;25336;59.944;11.010;2024-01-30T08:00:20;6.43;;;3.83;;
39654;SDS011;25336;59.944;11.010;2024-01-30T08:02:47;8.32;;;4.30;;
39654;SDS011;25336;59.944;11.010;2024-01-30T08:05:12;10.35;;;4.45;;
39654;SDS011;25336;59.944;11.010;2024-01-30T08:07:40;9.85;;;3.85;;
39654;SDS011;25336;59.944;11.010;2024-01-30T08:10:07;8.13;;;4.07;;
39654;SDS011;25336;59.944;11.010;2024-01-30T08:12:33;10.27;;;3.83;;
39654;SDS011;25336;59.944;11.010;2024-01-30T08:14:59;14.40;;;4.90;;
39654;SDS011;25336;59.944;11.010;2024-01-30T08:17:25;10.10;;;3.50;;
39654;SDS011;25336;59.944;11.010;2024-01-30T08:19:51;8.02;;;3.92;;
39654;SDS011;25336;59.944;11.010;2024-01-30T08:22:16;9.30;;;4.07;;
39654;SDS011;25336;59.944;11.010;2024-01-30T08:24:42;9.77;;;4.53;;
39654;SDS011;25336;59.944;11.010;2024-01-30T08:27:09;6.05;;;3.58;;
39654;SDS011;25336;59.944;11.010;2024-01-30T08:29:40;8.23;;;3.83;;
39654;SDS011;25336;59.944;11.010;2024-01-30T08:32:06;6.85;;;3.67;;
39654;SDS011;25336;59.944;11.010;2024-01-30T08:34:32;8.25;;;4.10;;
39654;SDS011;25336;59.944;11.010;2024-01-30T08:36:59;10.73;;;4.40;;
39654;SDS011;25336;59.944;11.010;2024-01-30T08:39:24;7.82;;;4.20;;
39654;SDS011;25336;59.944;11.010;2024-01-30T08:41:50;8.13;;;4.10;;
39654;SDS011;25336;59.944;11.010;2024-01-30T08:44:16;6.35;;;3.20;;
39654;SDS011;25336;59.944;11.010;2024-01-30T08:46:42;7.53;;;3.85;;
39654;SDS011;25336;59.944;11.010;2024-01-30T08:49:10;13.30;;;4.63;;
39654;SDS011;25336;59.944;11.010;2024-01-30T08:51:38;11.38;;;4.78;;
39654;SDS011;25336;59.944;11.010;2024-01-30T08:54:04;8.27;;;4.07;;
39654;SDS011;25336;59.944;11.010;2024-01-30T08:56:32;8.80;;;4.38;;
39654;SDS011;25336;59.944;11.010;2024-01-30T08:58:58;8.75;;;4.07;;
39654;SDS011;25336;59.944;11.010;2024-01-30T09:01:24;6.75;;;4.18;;
39654;SDS011;25336;59.944;11.010;2024-01-30T09:03:51;7.90;;;5.60;;
39654;SDS011;25336;59.944;11.010;2024-01-30T09:06:17;8.63;;;5.07;;
39654;SDS011;25336;59.944;11.010;2024-01-30T09:08:43;11.95;;;3.85;;
39654;SDS011;25336;59.944;11.010;2024-01-30T09:11:12;7.38;;;4.18;;
39654;SDS011;25336;59.944;11.010;2024-01-30T09:13:38;13.85;;;4.90;;
39654;SDS011;25336;59.944;11.010;2024-01-30T09:16:04;5.88;;;3.78;;
39654;SDS011;25336;59.944;11.010;2024-01-30T09:18:33;8.85;;;3.60;;
39654;SDS011;25336;59.944;11.010;2024-01-30T09:20:59;7.65;;;4.15;;
39654;SDS011;25336;59.944;11.010;2024-01-30T09:23:26;6.35;;;4.05;;
39654;SDS011;25336;59.944;11.010;2024-01-30T09:25:53;12.77;;;4.10;;
39654;SDS011;25336;59.944;11.010;2024-01-30T09:28:19;6.07;;;4.00;;
39654;SDS011;25336;59.944;11.010;2024-01-30T09:30:45;8.73;;;4.75;;
39654;SDS011;25336;59.944;11.010;2024-01-30T09:33:12;9.75;;;4.68;;
39654;SDS011;25336;59.944;11.010;2024-01-30T09:35:40;8.05;;;3.92;;
39654;SDS011;25336;59.944;11.010;2024-01-30T09:38:05;8.73;;;5.13;;
39654;SDS011;25336;59.944;11.010;2024-01-30T09:40:31;10.15;;;5.03;;
39654;SDS011;25336;59.944;11.010;2024-01-30T09:42:57;9.25;;;4.82;;
39654;SDS011;25336;59.944;11.010;2024-01-30T09:45:27;9.30;;;4.22;;
39654;SDS011;25336;59.944;11.010;2024-01-30T09:47:52;7.55;;;4.35;;
39654;SDS011;25336;59.944;11.010;2024-01-30T09:50:19;10.95;;;4.43;;
39654;SDS011;25336;59.944;11.010;2024-01-30T09:52:47;6.18;;;3.58;;
39654;SDS011;25336;59.944;11.010;2024-01-30T09:55:15;8.90;;;4.05;;
39654;SDS011;25336;59.944;11.010;2024-01-30T09:57:42;10.13;;;4.82;;
39654;SDS011;25336;59.944;11.010;2024-01-30T10:00:08;11.95;;;5.53;;
39654;SDS011;25336;59.944;11.010;2024-01-30T10:02:38;7.90;;;4.00;;
39654;SDS011;25336;59.944;11.010;2024-01-30T10:05:04;5.82;;;3.72;;
39654;SDS011;25336;59.944;11.010;2024-01-30T10:07:31;10.15;;;4.93;;
39654;SDS011;25336;59.944;11.010;2024-01-30T10:09:57;9.65;;;5.18;;
39654;SDS011;25336;59.944;11.010;2024-01-30T10:12:23;7.57;;;4.28;;
39654;SDS011;25336;59.944;11.010;2024-01-30T10:14:50;10.32;;;4.22;;
39654;SDS011;25336;59.944;11.010;2024-01-30T10:17:16;8.70;;;4.28;;
39654;SDS011;25336;59.944;11.010;2024-01-30T10:19:42;11.82;;;4.70;;
39654;SDS011;25336;59.944;11.010;2024-01-30T10:22:08;8.60;;;4.55;;
39654;SDS011;25336;59.944;11.010;2024-01-30T10:24:35;5.90;;;3.83;;
39654;SDS011;25336;59.944;11.010;2024-01-30T10:27:01;7.78;;;4.18;;
39654;SDS011;25336;59.944;11.010;2024-01-30T10:29:27;7.88;;;4.10;;
39654;SDS011;25336;59.944;11.010;2024-01-30T10:32:03;16.35;;;4.70;;
39654;SDS011;25336;59.944;11.010;2024-01-30T10:34:30;10.60;;;4.20;;
39654;SDS011;25336;59.944;11.010;2024-01-30T10:37:16;8.05;;;4.07;;
39654;SDS011;25336;59.944;11.010;2024-01-30T10:39:45;7.20;;;3.78;;
39654;SDS011;25336;59.944;11.010;2024-01-30T10:42:12;8.13;;;4.15;;
39654;SDS011;25336;59.944;11.010;2024-01-30T10:44:52;10.75;;;4.68;;
39654;SDS011;25336;59.944;11.010;2024-01-30T10:47:29;9.40;;;4.32;;
39654;SDS011;25336;59.944;11.010;2024-01-30T10:49:56;10.57;;;4.20;;
39654;SDS011;25336;59.944;11.010;2024-01-30T10:52:23;8.13;;;4.78;;
39654;SDS011;25336;59.944;11.010;2024-01-30T10:54:51;9.45;;;4.70;;
39654;SDS011;25336;59.944;11.010;2024-01-30T10:57:17;11.77;;;4.40;;
39654;SDS011;25336;59.944;11.010;2024-01-30T10:59:43;8.65;;;4.82;;
39654;SDS011;25336;59.944;11.010;2024-01-30T11:02:12;9.05;;;4.45;;
39654;SDS011;25336;59.944;11.010;2024-01-30T11:04:42;12.38;;;3.72;;
39654;SDS011;25336;59.944;11.010;2024-01-30T11:07:17;7.05;;;3.53;;
39654;SDS011;25336;59.944;11.010;2024-01-30T11:09:52;10.05;;;4.15;;
39654;SDS011;25336;59.944;11.010;2024-01-30T11:12:25;8.55;;;4.15;;
39654;SDS011;25336;59.944;11.010;2024-01-30T11:15:06;7.75;;;3.47;;
39654;SDS011;25336;59.944;11.010;2024-01-30T11:17:41;6.80;;;3.38;;
39654;SDS011;25336;59.944;11.010;2024-01-30T11:20:20;13.00;;;5.03;;
39654;SDS011;25336;59.944;11.010;2024-01-30T11:22:56;9.93;;;4.50;;
39654;SDS011;25336;59.944;11.010;2024-01-30T11:25:22;8.68;;;4.35;;
39654;SDS011;25336;59.944;11.010;2024-01-30T11:27:49;8.82;;;4.68;;
39654;SDS011;25336;59.944;11.010;2024-01-30T11:30:29;10.98;;;5.15;;
39654;SDS011;25336;59.944;11.010;2024-01-30T11:33:09;9.98;;;4.75;;
39654;SDS011;25336;59.944;11.010;2024-01-30T11:35:39;14.95;;;4.68;;
39654;SDS011;25336;59.944;11.010;2024-01-30T11:38:06;12.25;;;4.43;;
39654;SDS011;25336;59.944;11.010;2024-01-30T11:40:34;7.30;;;3.95;;
39654;SDS011;25336;59.944;11.010;2024-01-30T11:43:04;8.13;;;5.07;;
39654;SDS011;25336;59.944;11.010;2024-01-30T11:45:31;7.68;;;4.65;;
39654;SDS011;25336;59.944;11.010;2024-01-30T11:47:58;8.40;;;4.30;;
39654;SDS011;25336;59.944;11.010;2024-01-30T11:50:31;12.10;;;5.63;;
39654;SDS011;25336;59.944;11.010;2024-01-30T11:53:01;9.68;;;5.10;;
39654;SDS011;25336;59.944;11.010;2024-01-30T11:55:28;14.57;;;5.47;;
39654;SDS011;25336;59.944;11.010;2024-01-30T11:57:55;8.50;;;5.30;;
39654;SDS011;25336;59.944;11.010;2024-01-30T12:00:24;9.88;;;5.93;;
39654;SDS011;25336;59.944;11.010;2024-01-30T12:02:51;11.77;;;5.30;;
39654;SDS011;25336;59.944;11.010;2024-01-30T12:05:21;14.18;;;5.35;;
39654;SDS011;25336;59.944;11.010;2024-01-30T12:07:47;8.90;;;4.72;;
39654;SDS011;25336;59.944;11.010;2024-01-30T12:10:13;7.85;;;5.00;;
39654;SDS011;25336;59.944;11.010;2024-01-30T12:12:40;7.03;;;4.55;;
39654;SDS011;25336;59.944;11.010;2024-01-30T12:15:08;10.07;;;6.13;;
39654;SDS011;25336;59.944;11.010;2024-01-30T12:17:35;7.93;;;5.20;;
39654;SDS011;25336;59.944;11.010;2024-01-30T12:20:11;14.63;;;5.05;;
39654;SDS011;25336;59.944;11.010;2024-01-30T12:25:07;8.13;;;5.75;;
39654;SDS011;25336;59.944;11.010;2024-01-30T12:27:38;12.52;;;7.68;;
39654;SDS011;25336;59.944;11.010;2024-01-30T12:30:23;9.43;;;5.60;;
39654;SDS011;25336;59.944;11.010;2024-01-30T12:32:49;9.43;;;4.18;;
39654;SDS011;25336;59.944;11.010;2024-01-30T12:35:21;10.68;;;4.75;;
39654;SDS011;25336;59.944;11.010;2024-01-30T12:37:48;10.35;;;6.32;;
39654;SDS011;25336;59.944;11.010;2024-01-30T12:40:15;10.80;;;5.50;;
39654;SDS011;25336;59.944;11.010;2024-01-30T12:42:42;10.65;;;5.93;;
39654;SDS011;25336;59.944;11.010;2024-01-30T12:45:08;11.85;;;6.05;;
39654;SDS011;25336;59.944;11.010;2024-01-30T12:47:35;8.02;;;5.38;;
39654;SDS011;25336;59.944;11.010;2024-01-30T12:50:02;10.75;;;5.97;;
39654;SDS011;25336;59.944;11.010;2024-01-30T12:52:28;11.93;;;7.50;;
39654;SDS011;25336;59.944;11.010;2024-01-30T12:54:54;8.35;;;5.45;;
39654;SDS011;25336;59.944;11.010;2024-01-30T12:57:21;12.57;;;6.60;;
39654;SDS011;25336;59.944;11.010;2024-01-30T12:59:47;9.50;;;6.28;;
39654;SDS011;25336;59.944;11.010;2024-01-30T13:02:13;12.88;;;6.57;;
39654;SDS011;25336;59.944;11.010;2024-01-30T13:04:39;8.07;;;4.95;;
39654;SDS011;25336;59.944;11.010;2024-01-30T13:07:08;10.05;;;5.20;;
39654;SDS011;25336;59.944;11.010;2024-01-30T13:09:33;11.57;;;6.50;;
39654;SDS011;25336;59.944;11.010;2024-01-30T13:11:59;13.38;;;5.40;;
39654;SDS011;25336;59.944;11.010;2024-01-30T13:14:25;8.68;;;4.43;;
39654;SDS011;25336;59.944;11.010;2024-01-30T13:16:51;8.07;;;4.78;;
39654;SDS011;25336;59.944;11.010;2024-01-30T13:19:17;10.50;;;4.65;;
39654;SDS011;25336;59.944;11.010;2024-01-30T13:21:43;11.10;;;4.80;;
39654;SDS011;25336;59.944;11.010;2024-01-30T13:24:12;9.38;;;4.65;;
39654;SDS011;25336;59.944;11.010;2024-01-30T13:26:37;9.05;;;3.78;;
39654;SDS011;25336;59.944;11.010;2024-01-30T13:29:04;8.85;;;5.18;;
39654;SDS011;25336;59.944;11.010;2024-01-30T13:31:30;7.85;;;4.65;;
39654;SDS011;25336;59.944;11.010;2024-01-30T13:33:55;11.73;;;4.05;;
39654;SDS011;25336;59.944;11.010;2024-01-30T13:36:21;7.15;;;4.22;;
39654;SDS011;25336;59.944;11.010;2024-01-30T13:38:47;9.05;;;4.63;;
39654;SDS011;25336;59.944;11.010;2024-01-30T13:41:13;8.38;;;4.60;;
39654;SDS011;25336;59.944;11.010;2024-01-30T13:43:39;9.75;;;4.93;;
39654;SDS011;25336;59.944;11.010;2024-01-30T13:46:05;9.63;;;6.63;;
39654;SDS011;25336;59.944;11.010;2024-01-30T13:48:31;14.95;;;7.60;;
39654;SDS011;25336;59.944;11.010;2024-01-30T13:50:59;15.68;;;7.35;;
39654;SDS011;25336;59.944;11.010;2024-01-30T13:53:25;12.98;;;6.60;;
39654;SDS011;25336;59.944;11.010;2024-01-30T13:55:51;11.70;;;5.82;;
39654;SDS011;25336;59.944;11.010;2024-01-30T13:58:20;12.32;;;6.10;;
39654;SDS011;25336;59.944;11.010;2024-01-30T14:00:46;12.32;;;5.55;;
39654;SDS011;25336;59.944;11.010;2024-01-30T14:03:11;9.13;;;6.55;;
39654;SDS011;25336;59.944;11.010;2024-01-30T14:05:37;8.60;;;5.78;;
39654;SDS011;25336;59.944;11.010;2024-01-30T14:08:04;9.60;;;5.95;;
39654;SDS011;25336;59.944;11.010;2024-01-30T14:10:30;16.02;;;6.25;;
39654;SDS011;25336;59.944;11.010;2024-01-30T14:12:57;11.27;;;5.03;;
39654;SDS011;25336;59.944;11.010;2024-01-30T14:15:23;12.15;;;4.93;;
39654;SDS011;25336;59.944;11.010;2024-01-30T14:17:48;10.23;;;4.88;;
39654;SDS011;25336;59.944;11.010;2024-01-30T14:20:15;8.38;;;4.20;;
39654;SDS011;25336;59.944;11.010;2024-01-30T14:22:43;8.82;;;5.22;;
39654;SDS011;25336;59.944;11.010;2024-01-30T14:25:09;9.02;;;4.65;;
39654;SDS011;25336;59.944;11.010;2024-01-30T14:27:35;10.60;;;6.20;;
39654;SDS011;25336;59.944;11.010;2024-01-30T14:30:01;8.88;;;5.32;;
39654;SDS011;25336;59.944;11.010;2024-01-30T14:32:30;11.25;;;4.90;;
39654;SDS011;25336;59.944;11.010;2024-01-30T14:34:56;10.88;;;4.72;;